createdAt,value
2019-01-28T00:00:54.802Z,4.40
2019-01-28T00:03:23.150Z,5.33
2019-01-28T00:05:51.457Z,5.17
2019-01-28T00:08:19.807Z,5.27
2019-01-28T00:10:48.090Z,3.80
2019-01-28T00:13:16.391Z,4.90
2019-01-28T00:15:44.662Z,5.77
2019-01-28T00:18:12.962Z,5.43
2019-01-28T00:20:41.262Z,4.73
2019-01-28T00:23:09.534Z,4.87
2019-01-28T00:25:37.835Z,6.37
2019-01-28T00:28:06.135Z,4.67
2019-01-28T00:30:34.418Z,5.13
2019-01-28T00:33:02.793Z,4.73
2019-01-28T00:35:31.068Z,4.20
2019-01-28T00:37:59.346Z,3.47
2019-01-28T00:40:27.649Z,5.43
2019-01-28T00:42:56.290Z,6.53
2019-01-28T00:45:24.595Z,6.40
2019-01-28T00:47:52.942Z,4.63
2019-01-28T00:50:21.255Z,4.77
2019-01-28T00:52:49.536Z,5.00
2019-01-28T00:55:17.811Z,4.50
2019-01-28T00:57:46.118Z,5.70
2019-01-28T01:00:17.899Z,5.60
2019-01-28T01:02:46.207Z,5.47
2019-01-28T01:05:14.475Z,6.80
2019-01-28T01:07:42.802Z,5.53
2019-01-28T01:10:12.111Z,4.93
2019-01-28T01:12:40.386Z,6.10
2019-01-28T01:15:11.886Z,4.43
2019-01-28T01:17:40.187Z,5.83
2019-01-28T01:20:11.527Z,6.17
2019-01-28T01:22:39.836Z,4.20
2019-01-28T01:25:08.543Z,8.70
2019-01-28T01:27:36.821Z,7.03
2019-01-28T01:30:08.702Z,3.97
2019-01-28T01:32:37.050Z,6.07
2019-01-28T01:35:06.606Z,6.67
2019-01-28T01:37:34.958Z,7.40
2019-01-28T01:40:03.626Z,5.70
2019-01-28T01:42:31.902Z,5.53
2019-01-28T01:45:00.250Z,8.80
2019-01-28T01:47:28.542Z,9.20
2019-01-28T01:49:56.818Z,7.33
2019-01-28T01:52:25.119Z,6.43
2019-01-28T01:54:53.486Z,6.37
2019-01-28T01:57:21.791Z,6.07
2019-01-28T01:59:50.067Z,8.80
2019-01-28T02:02:18.370Z,8.00
2019-01-28T02:04:46.930Z,5.07
2019-01-28T02:07:15.303Z,5.83
2019-01-28T02:09:43.579Z,8.20
2019-01-28T02:12:11.875Z,4.37
2019-01-28T02:14:40.151Z,5.27
2019-01-28T02:17:08.466Z,6.20
2019-01-28T02:19:36.742Z,4.23
2019-01-28T02:22:05.018Z,7.33
2019-01-28T02:24:33.314Z,3.80
2019-01-28T02:27:01.615Z,2.87
2019-01-28T02:29:29.914Z,4.83
2019-01-28T02:31:58.196Z,4.40
2019-01-28T02:34:26.566Z,4.43
2019-01-28T02:36:54.862Z,4.37
2019-01-28T02:39:23.163Z,2.80
2019-01-28T02:41:51.480Z,2.63
2019-01-28T02:44:19.810Z,6.40
2019-01-28T02:46:48.110Z,3.00
2019-01-28T02:49:16.416Z,1.53
2019-01-28T02:51:44.786Z,2.63
2019-01-28T02:54:13.063Z,3.53
2019-01-28T02:56:41.368Z,3.27
2019-01-28T02:59:09.710Z,3.57
2019-01-28T03:01:38.023Z,2.83
2019-01-28T03:04:06.374Z,2.97
2019-01-28T03:06:34.655Z,3.23
2019-01-28T03:09:04.631Z,2.63
2019-01-28T03:11:32.976Z,2.37
2019-01-28T03:14:01.362Z,1.70
2019-01-28T03:16:29.645Z,1.73
2019-01-28T03:18:57.999Z,1.63
2019-01-28T03:21:26.302Z,2.13
2019-01-28T03:23:54.676Z,2.47
2019-01-28T03:26:22.955Z,2.37
2019-01-28T03:28:51.323Z,2.63
2019-01-28T03:31:19.623Z,1.47
2019-01-28T03:33:48.018Z,2.10
2019-01-28T03:36:16.335Z,2.13
2019-01-28T03:38:44.623Z,1.63
2019-01-28T03:41:12.987Z,1.80
2019-01-28T03:43:41.292Z,2.83
2019-01-28T03:46:09.893Z,2.03
2019-01-28T03:48:38.354Z,1.87
2019-01-28T03:51:06.640Z,1.97
2019-01-28T03:53:35.379Z,1.83
2019-01-28T03:56:03.688Z,1.43
2019-01-28T03:58:31.963Z,2.43
2019-01-28T04:01:00.242Z,1.47
2019-01-28T04:03:28.620Z,1.40
2019-01-28T04:05:56.898Z,1.90
2019-01-28T04:08:25.271Z,1.40
2019-01-28T04:10:53.551Z,1.10
2019-01-28T04:13:21.856Z,1.97
2019-01-28T04:15:50.207Z,1.97
2019-01-28T04:18:18.599Z,1.20
2019-01-28T04:20:46.967Z,1.10
2019-01-28T04:23:15.238Z,1.57
2019-01-28T04:25:43.540Z,3.00
2019-01-28T04:28:11.817Z,2.53
2019-01-28T04:30:40.096Z,1.47
2019-01-28T04:33:08.396Z,2.20
2019-01-28T04:35:36.772Z,1.57
2019-01-28T04:38:05.048Z,1.97
2019-01-28T04:40:33.350Z,1.83
2019-01-28T04:43:01.659Z,0.90
2019-01-28T04:45:30.035Z,1.50
2019-01-28T04:47:58.315Z,0.80
2019-01-28T04:50:26.612Z,1.00
2019-01-28T04:52:54.886Z,1.30
2019-01-28T04:55:23.205Z,3.40
2019-01-28T04:57:51.480Z,0.80
2019-01-28T05:00:21.975Z,0.80
2019-01-28T05:02:50.274Z,1.00
2019-01-28T05:05:18.553Z,0.70
2019-01-28T05:07:46.937Z,1.47
2019-01-28T05:10:19.646Z,3.13
2019-01-28T05:12:47.979Z,0.80
2019-01-28T05:15:23.159Z,1.40
2019-01-28T05:17:51.507Z,1.17
2019-01-28T05:20:22.309Z,1.70
2019-01-28T05:22:50.587Z,0.80
2019-01-28T05:25:18.959Z,0.90
2019-01-28T05:27:47.396Z,0.67
2019-01-28T05:30:18.316Z,0.70
2019-01-28T05:32:46.703Z,0.80
2019-01-28T05:35:17.090Z,1.10
2019-01-28T05:37:45.508Z,1.27
2019-01-28T05:40:34.854Z,1.00
2019-01-28T05:43:03.371Z,0.80
2019-01-28T05:45:31.670Z,1.20
2019-01-28T05:47:59.942Z,0.80
2019-01-28T05:50:29.324Z,0.90
2019-01-28T05:52:57.815Z,1.23
2019-01-28T05:55:26.218Z,0.93
2019-01-28T05:57:54.499Z,1.07
2019-01-28T06:00:27.138Z,0.90
2019-01-28T06:02:55.508Z,2.90
2019-01-28T06:05:23.789Z,0.77
2019-01-28T06:07:52.066Z,1.43
2019-01-28T06:10:20.372Z,2.67
2019-01-28T06:12:48.739Z,2.13
2019-01-28T06:15:18.455Z,2.63
2019-01-28T06:17:46.754Z,4.13
2019-01-28T06:20:26.025Z,2.40
2019-01-28T06:22:54.326Z,1.33
2019-01-28T06:25:22.711Z,1.63
2019-01-28T06:27:50.982Z,1.63
2019-01-28T06:30:24.583Z,1.93
2019-01-28T06:32:52.967Z,2.60
2019-01-28T06:35:21.315Z,3.60
2019-01-28T06:37:49.663Z,4.10
2019-01-28T06:40:24.150Z,1.90
2019-01-28T06:42:52.494Z,2.27
2019-01-28T06:45:20.801Z,2.60
2019-01-28T06:47:49.142Z,2.00
2019-01-28T06:50:21.708Z,3.47
2019-01-28T06:52:50.082Z,3.70
2019-01-28T06:55:18.610Z,3.63
2019-01-28T06:57:46.989Z,3.17
2019-01-28T07:00:18.759Z,4.43
2019-01-28T07:02:47.076Z,2.80
2019-01-28T07:05:15.422Z,4.90
2019-01-28T07:07:43.722Z,4.83
2019-01-28T07:10:12.247Z,3.10
2019-01-28T07:12:40.543Z,3.20
2019-01-28T07:15:11.324Z,2.97
2019-01-28T07:17:39.622Z,4.70
2019-01-28T07:20:11.681Z,4.83
2019-01-28T07:22:40.066Z,2.90
2019-01-28T07:25:08.414Z,3.77
2019-01-28T07:27:36.845Z,1.90
2019-01-28T07:30:11.263Z,4.10
2019-01-28T07:32:39.546Z,3.47
2019-01-28T07:35:10.689Z,2.60
2019-01-28T07:37:39.030Z,4.13
2019-01-28T07:40:10.607Z,2.60
2019-01-28T07:42:38.978Z,3.50
2019-01-28T07:45:22.270Z,2.67
2019-01-28T07:47:50.575Z,2.30
2019-01-28T07:50:18.958Z,3.47
2019-01-28T07:52:47.242Z,1.40
2019-01-28T07:55:15.590Z,2.50
2019-01-28T07:57:43.887Z,3.33
2019-01-28T08:00:15.326Z,5.83
2019-01-28T08:02:43.622Z,1.97
2019-01-28T08:05:13.560Z,4.73
2019-01-28T08:07:41.839Z,3.30
2019-01-28T08:10:12.654Z,3.67
2019-01-28T08:12:40.951Z,3.70
2019-01-28T08:15:12.162Z,2.40
2019-01-28T08:17:40.491Z,5.77
2019-01-28T08:20:12.110Z,2.63
2019-01-28T08:22:40.406Z,2.93
2019-01-28T08:25:11.219Z,3.40
2019-01-28T08:27:39.552Z,3.33
2019-01-28T08:30:19.230Z,5.40
2019-01-28T08:32:47.527Z,3.93
2019-01-28T08:35:16.191Z,4.17
2019-01-28T08:37:44.535Z,2.23
2019-01-28T08:40:15.280Z,4.57
2019-01-28T08:42:43.583Z,4.03
2019-01-28T08:45:12.826Z,3.80
2019-01-28T08:47:41.235Z,4.60
2019-01-28T08:50:12.743Z,3.83
2019-01-28T08:52:41.020Z,3.20
2019-01-28T08:55:14.701Z,4.17
2019-01-28T08:57:43.030Z,3.43
2019-01-28T09:00:20.214Z,2.67
2019-01-28T09:02:48.490Z,3.80
2019-01-28T09:05:17.719Z,2.67
2019-01-28T09:07:46.093Z,3.30
2019-01-28T09:10:17.106Z,3.87
2019-01-28T09:12:47.123Z,2.60
2019-01-28T09:15:18.279Z,3.23
2019-01-28T09:17:46.579Z,4.17
2019-01-28T09:20:17.656Z,2.27
2019-01-28T09:22:45.954Z,3.30
2019-01-28T09:25:15.367Z,2.47
2019-01-28T09:27:43.671Z,3.60
2019-01-28T09:30:15.288Z,3.27
2019-01-28T09:32:43.747Z,4.07
2019-01-28T09:35:12.066Z,3.37
2019-01-28T09:37:40.342Z,6.03
2019-01-28T09:40:15.295Z,2.43
2019-01-28T09:42:43.570Z,3.43
2019-01-28T09:45:35.840Z,4.00
2019-01-28T09:48:05.099Z,4.97
2019-01-28T09:50:33.395Z,6.10
2019-01-28T09:53:01.667Z,4.40
2019-01-28T09:55:29.974Z,4.70
2019-01-28T09:57:58.251Z,4.93
2019-01-28T10:00:37.491Z,3.57
2019-01-28T10:03:06.103Z,3.73
2019-01-28T10:05:34.413Z,3.30
2019-01-28T10:08:02.760Z,3.53
2019-01-28T10:10:31.150Z,1.83
2019-01-28T10:12:59.498Z,3.80
2019-01-28T10:15:29.054Z,4.73
2019-01-28T10:17:57.632Z,3.13
2019-01-28T10:20:34.190Z,4.50
2019-01-28T10:23:02.549Z,3.40
2019-01-28T10:25:31.467Z,3.20
2019-01-28T10:27:59.771Z,2.53
2019-01-28T10:30:33.089Z,3.40
2019-01-28T10:33:01.731Z,3.47
2019-01-28T10:35:32.202Z,2.97
2019-01-28T10:38:00.506Z,2.67
2019-01-28T10:40:31.487Z,4.23
2019-01-28T10:42:59.791Z,2.50
2019-01-28T10:45:28.077Z,2.13
2019-01-28T10:48:00.672Z,2.60
2019-01-28T10:50:27.521Z,2.70
2019-01-28T10:52:55.797Z,2.90
2019-01-28T10:55:25.210Z,3.53
2019-01-28T10:57:53.558Z,1.83
2019-01-28T11:00:27.343Z,2.53
2019-01-28T11:02:55.689Z,1.70
2019-01-28T11:05:23.958Z,3.53
2019-01-28T11:07:52.262Z,1.47
2019-01-28T11:10:22.798Z,3.50
2019-01-28T11:12:51.170Z,1.50
2019-01-28T11:15:21.750Z,1.63
2019-01-28T11:17:50.241Z,1.40
2019-01-28T11:20:18.710Z,1.13
2019-01-28T11:22:47.118Z,1.40
2019-01-28T11:25:20.882Z,2.50
2019-01-28T11:27:49.425Z,1.67
2019-01-28T11:30:20.925Z,2.07
2019-01-28T11:32:49.346Z,1.40
2019-01-28T11:35:17.727Z,2.70
2019-01-28T11:37:46.124Z,1.63
2019-01-28T11:40:16.259Z,2.73
2019-01-28T11:42:44.586Z,2.77
2019-01-28T11:45:28.263Z,2.27
2019-01-28T11:47:56.538Z,2.43
2019-01-28T11:50:24.843Z,1.90
2019-01-28T11:52:53.120Z,1.70
2019-01-28T11:55:21.450Z,1.27
2019-01-28T11:57:49.782Z,1.23
2019-01-28T12:00:28.898Z,1.23
2019-01-28T12:02:57.178Z,0.80
2019-01-28T12:05:25.452Z,1.13
2019-01-28T12:07:53.871Z,0.60
2019-01-28T12:10:22.178Z,1.00
2019-01-28T12:12:50.506Z,0.93
2019-01-28T12:15:20.146Z,1.90
2019-01-28T12:17:48.422Z,2.00
2019-01-28T12:20:17.735Z,1.17
2019-01-28T12:22:46.135Z,1.80
2019-01-28T12:25:15.479Z,2.90
2019-01-28T12:27:44.118Z,1.20
2019-01-28T12:30:33.463Z,0.70
2019-01-28T12:33:01.738Z,0.93
2019-01-28T12:35:30.048Z,0.90
2019-01-28T12:37:58.739Z,1.33
2019-01-28T12:40:27.061Z,1.47
2019-01-28T12:42:55.340Z,2.23
2019-01-28T12:45:27.935Z,1.37
2019-01-28T12:47:56.282Z,1.73
2019-01-28T12:50:25.193Z,2.77
2019-01-28T12:52:53.617Z,1.40
2019-01-28T12:55:23.453Z,1.57
2019-01-28T12:57:51.798Z,1.30
2019-01-28T13:00:55.428Z,1.10
2019-01-28T13:03:23.870Z,2.17
2019-01-28T13:05:52.174Z,1.67
2019-01-28T13:08:20.446Z,1.70
2019-01-28T13:10:48.746Z,1.43
2019-01-28T13:13:17.026Z,0.97
2019-01-28T13:15:45.327Z,1.00
2019-01-28T13:18:13.603Z,2.73
2019-01-28T13:20:41.919Z,1.23
2019-01-28T13:23:10.274Z,2.63
2019-01-28T13:25:38.621Z,1.50
2019-01-28T13:28:08.154Z,1.00
2019-01-28T13:30:40.235Z,0.80
2019-01-28T13:33:13.273Z,1.50
2019-01-28T13:35:41.862Z,0.87
2019-01-28T13:38:10.165Z,0.80
2019-01-28T13:40:38.540Z,1.80
2019-01-28T13:43:06.911Z,0.80
2019-01-28T13:45:35.283Z,1.47
2019-01-28T13:48:23.163Z,0.70
2019-01-28T13:50:51.444Z,1.20
2019-01-28T13:53:19.831Z,0.60
2019-01-28T13:55:48.106Z,0.63
2019-01-28T13:58:16.383Z,0.80
2019-01-28T14:00:44.755Z,1.53
2019-01-28T14:03:13.030Z,2.37
2019-01-28T14:05:41.334Z,1.77
2019-01-28T14:08:09.658Z,1.57
2019-01-28T14:10:37.932Z,1.17
2019-01-28T14:13:06.874Z,1.13
2019-01-28T14:15:39.323Z,0.60
2019-01-28T14:18:08.874Z,2.47
2019-01-28T14:20:38.706Z,0.60
2019-01-28T14:23:07.154Z,0.77
2019-01-28T14:25:35.459Z,1.00
2019-01-28T14:28:05.773Z,1.03
2019-01-28T14:30:39.271Z,1.03
2019-01-28T14:33:08.106Z,1.40
2019-01-28T14:35:36.834Z,1.77
2019-01-28T14:38:06.575Z,1.60
2019-01-28T14:40:35.123Z,3.23
2019-01-28T14:43:03.495Z,2.50
2019-01-28T14:45:31.770Z,4.07
2019-01-28T14:48:00.071Z,1.60
2019-01-28T14:50:30.887Z,1.63
2019-01-28T14:52:59.204Z,2.77
2019-01-28T14:55:27.557Z,1.67
2019-01-28T14:57:56.172Z,2.17
2019-01-28T15:00:27.802Z,1.60
2019-01-28T15:02:56.138Z,2.83
2019-01-28T15:05:24.555Z,2.20
2019-01-28T15:07:52.911Z,1.63
2019-01-28T15:10:21.235Z,1.77
2019-01-28T15:12:49.519Z,2.27
2019-01-28T15:15:32.987Z,1.47
2019-01-28T15:18:01.286Z,2.53
2019-01-28T15:20:29.590Z,2.43
2019-01-28T15:22:59.525Z,2.73
2019-01-28T15:25:27.883Z,2.47
2019-01-28T15:27:56.161Z,2.30
2019-01-28T15:30:30.994Z,3.73
2019-01-28T15:32:59.328Z,3.07
2019-01-28T15:35:27.666Z,1.70
2019-01-28T15:37:55.973Z,2.50
2019-01-28T15:40:26.638Z,1.63
2019-01-28T15:42:54.938Z,2.33
2019-01-28T15:45:25.555Z,3.00
2019-01-28T15:47:53.874Z,1.77
2019-01-28T15:50:22.203Z,3.07
2019-01-28T15:52:51.182Z,1.70
2019-01-28T15:55:31.686Z,2.67
2019-01-28T15:57:59.991Z,2.10
2019-01-28T16:00:30.580Z,3.97
2019-01-28T16:02:58.898Z,3.77
2019-01-28T16:05:27.178Z,3.33
2019-01-28T16:07:55.451Z,2.30
2019-01-28T16:10:23.757Z,2.87
2019-01-28T16:12:52.030Z,2.13
2019-01-28T16:15:23.343Z,2.23
2019-01-28T16:17:51.619Z,2.47
2019-01-28T16:20:19.898Z,2.87
2019-01-28T16:22:48.275Z,2.93
2019-01-28T16:25:16.591Z,3.53
2019-01-28T16:27:45.032Z,3.33
2019-01-28T16:30:18.982Z,2.57
2019-01-28T16:32:47.294Z,3.47
2019-01-28T16:35:17.910Z,4.00
2019-01-28T16:37:46.295Z,4.03
2019-01-28T16:40:29.423Z,4.23
2019-01-28T16:42:58.155Z,3.33
2019-01-28T16:45:26.459Z,2.70
2019-01-28T16:47:54.734Z,4.53
2019-01-28T16:50:26.943Z,4.97
2019-01-28T16:52:55.694Z,5.17
2019-01-28T16:55:24.069Z,2.97
2019-01-28T16:57:53.190Z,4.27
2019-01-28T17:00:26.887Z,8.47
2019-01-28T17:02:56.007Z,4.33
2019-01-28T17:05:24.306Z,5.53
2019-01-28T17:07:52.583Z,5.43
2019-01-28T17:10:20.883Z,4.87
2019-01-28T17:12:52.775Z,5.83
2019-01-28T17:15:22.439Z,6.07
2019-01-28T17:17:50.802Z,5.77
2019-01-28T17:20:24.474Z,9.37
2019-01-28T17:22:52.779Z,6.83
2019-01-28T17:25:36.014Z,8.17
2019-01-28T17:28:04.389Z,6.97
2019-01-28T17:30:47.975Z,5.97
2019-01-28T17:33:16.392Z,7.97
2019-01-28T17:35:44.686Z,6.23
2019-01-28T17:38:12.967Z,9.00
2019-01-28T17:40:41.883Z,5.30
2019-01-28T17:43:11.127Z,6.40
2019-01-28T17:45:39.573Z,6.60
2019-01-28T17:48:08.709Z,6.07
2019-01-28T17:50:43.438Z,6.73
2019-01-28T17:53:07.085Z,7.30
2019-01-28T17:55:35.507Z,9.67
2019-01-28T17:58:04.055Z,12.90
2019-01-28T18:00:40.087Z,10.43
2019-01-28T18:03:08.362Z,8.50
2019-01-28T18:05:36.676Z,15.10
2019-01-28T18:08:05.658Z,8.77
2019-01-28T18:10:33.975Z,8.70
2019-01-28T18:13:02.253Z,9.13
2019-01-28T18:15:30.609Z,9.93
2019-01-28T18:17:58.911Z,10.40
2019-01-28T18:20:27.214Z,11.83
2019-01-28T18:22:55.502Z,9.20
2019-01-28T18:25:33.079Z,11.07
2019-01-28T18:28:01.357Z,12.83
2019-01-28T18:30:36.571Z,9.07
2019-01-28T18:33:04.910Z,9.67
2019-01-28T18:35:33.217Z,6.93
2019-01-28T18:38:01.567Z,7.73
2019-01-28T18:40:29.867Z,8.87
2019-01-28T18:42:58.182Z,7.73
2019-01-28T18:45:26.530Z,9.13
2019-01-28T18:47:54.806Z,8.83
2019-01-28T18:50:24.044Z,5.97
2019-01-28T18:52:52.590Z,9.27
2019-01-28T18:55:22.133Z,5.70
2019-01-28T18:57:50.546Z,9.00
2019-01-28T19:00:21.623Z,5.67
2019-01-28T19:02:49.943Z,8.43
2019-01-28T19:05:29.826Z,7.27
2019-01-28T19:08:12.139Z,7.80
2019-01-28T19:10:42.066Z,10.33
2019-01-28T19:13:28.343Z,9.90
2019-01-28T19:15:58.262Z,5.70
2019-01-28T19:18:37.155Z,6.83
2019-01-28T19:21:08.220Z,6.83
2019-01-28T19:23:36.768Z,5.90
2019-01-28T19:26:05.043Z,7.07
2019-01-28T19:28:33.323Z,8.30
2019-01-28T19:31:01.624Z,8.00
2019-01-28T19:33:29.900Z,7.77
2019-01-28T19:35:58.203Z,8.00
2019-01-28T19:38:26.572Z,6.97
2019-01-28T19:40:54.935Z,6.23
2019-01-28T19:43:23.206Z,7.43
2019-01-28T19:45:51.511Z,8.73
2019-01-28T19:48:19.835Z,10.80
2019-01-28T19:50:48.115Z,7.37
2019-01-28T19:53:16.420Z,10.23
2019-01-28T19:55:44.820Z,6.87
2019-01-28T19:58:13.101Z,7.43
2019-01-28T20:00:41.481Z,7.13
2019-01-28T20:03:10.017Z,6.70
2019-01-28T20:05:38.403Z,5.97
2019-01-28T20:08:06.711Z,5.83
2019-01-28T20:10:35.115Z,6.13
2019-01-28T20:13:03.395Z,7.40
2019-01-28T20:15:31.742Z,5.63
2019-01-28T20:18:00.051Z,6.07
2019-01-28T20:20:28.397Z,6.73
2019-01-28T20:22:56.737Z,6.07
2019-01-28T20:25:25.114Z,8.47
2019-01-28T20:27:53.422Z,6.43
2019-01-28T20:30:26.718Z,5.67
2019-01-28T20:32:55.020Z,6.77
2019-01-28T20:35:23.559Z,6.53
2019-01-28T20:37:51.833Z,8.20
2019-01-28T20:40:20.147Z,7.73
2019-01-28T20:42:48.422Z,8.00
2019-01-28T20:45:22.283Z,9.03
2019-01-28T20:47:50.635Z,7.77
2019-01-28T20:50:27.486Z,5.93
2019-01-28T20:52:55.936Z,5.93
2019-01-28T20:55:24.303Z,6.77
2019-01-28T20:57:52.658Z,6.93
2019-01-28T21:00:28.307Z,6.57
2019-01-28T21:02:56.685Z,7.53
2019-01-28T21:05:26.002Z,6.90
2019-01-28T21:07:54.485Z,6.93
2019-01-28T21:10:22.993Z,6.03
2019-01-28T21:12:52.439Z,6.93
2019-01-28T21:15:20.782Z,9.33
2019-01-28T21:17:49.206Z,6.73
2019-01-28T21:20:20.068Z,9.97
2019-01-28T21:22:48.853Z,5.97
2019-01-28T21:25:25.282Z,7.77
2019-01-28T21:27:53.599Z,7.13
2019-01-28T21:30:33.523Z,5.10
2019-01-28T21:33:01.832Z,9.27
2019-01-28T21:35:41.426Z,6.50
2019-01-28T21:38:11.354Z,7.37
2019-01-28T21:40:39.630Z,11.27
2019-01-28T21:43:07.932Z,7.30
2019-01-28T21:45:36.250Z,9.47
2019-01-28T21:48:04.624Z,4.90
2019-01-28T21:50:33.058Z,4.97
2019-01-28T21:53:01.338Z,6.80
2019-01-28T21:55:29.642Z,5.87
2019-01-28T21:57:58.006Z,4.00
2019-01-28T22:00:26.370Z,6.80
2019-01-28T22:02:54.643Z,5.13
2019-01-28T22:05:22.949Z,6.63
2019-01-28T22:07:51.264Z,7.03
2019-01-28T22:10:19.593Z,4.40
2019-01-28T22:12:47.890Z,7.73
2019-01-28T22:15:18.168Z,5.30
2019-01-28T22:17:46.555Z,6.37
2019-01-28T22:20:15.388Z,5.20
2019-01-28T22:22:43.804Z,6.53
2019-01-28T22:25:16.640Z,9.07
2019-01-28T22:27:44.938Z,9.10
2019-01-28T22:30:16.157Z,5.93
2019-01-28T22:32:45.395Z,11.43
2019-01-28T22:35:13.722Z,7.63
2019-01-28T22:37:41.998Z,6.57
2019-01-28T22:40:13.311Z,7.93
2019-01-28T22:42:41.598Z,7.00
2019-01-28T22:45:18.273Z,7.90
2019-01-28T22:47:46.632Z,7.70
2019-01-28T22:50:16.587Z,7.87
2019-01-28T22:52:45.107Z,9.03
2019-01-28T22:55:15.742Z,6.67
2019-01-28T22:57:44.090Z,10.03
2019-01-28T23:00:36.534Z,7.87
2019-01-28T23:03:05.379Z,7.87
2019-01-28T23:05:33.686Z,5.70
2019-01-28T23:08:02.030Z,7.13
2019-01-28T23:10:30.330Z,8.73
2019-01-28T23:12:58.607Z,5.80
2019-01-28T23:15:26.889Z,6.77
2019-01-28T23:17:55.262Z,5.17
2019-01-28T23:20:23.634Z,7.73
2019-01-28T23:22:51.942Z,7.53
2019-01-28T23:25:20.286Z,6.93
2019-01-28T23:27:48.591Z,7.60
2019-01-28T23:30:16.863Z,10.60
2019-01-28T23:32:45.166Z,5.13
2019-01-28T23:35:13.446Z,4.83
2019-01-28T23:37:41.713Z,6.00
2019-01-28T23:40:10.010Z,3.13
2019-01-28T23:42:38.358Z,6.20
2019-01-28T23:45:11.912Z,7.90
2019-01-28T23:47:40.287Z,5.83
2019-01-28T23:50:10.402Z,4.60
2019-01-28T23:52:38.719Z,5.67
2019-01-28T23:55:08.535Z,5.10
2019-01-28T23:57:36.811Z,4.63
